sensor_id;sensor_type;location;lat;lon;timestamp;P1;durP1;ratioP1;P2;durP2;ratioP2
66966;SDS011;53900;51.468;-2.586;2022-10-17T00:00:17;13.25;;;1.95;;
66966;SDS011;53900;51.468;-2.586;2022-10-17T00:02:43;14.43;;;2.03;;
66966;SDS011;53900;51.468;-2.586;2022-10-17T00:05:09;18.25;;;1.80;;
66966;SDS011;53900;51.468;-2.586;2022-10-17T00:07:36;8.77;;;1.50;;
66966;SDS011;53900;51.468;-2.586;2022-10-17T00:10:02;6.57;;;1.70;;
66966;SDS011;53900;51.468;-2.586;2022-10-17T00:12:28;9.85;;;1.50;;
66966;SDS011;53900;51.468;-2.586;2022-10-17T00:14:54;9.48;;;1.50;;
66966;SDS011;53900;51.468;-2.586;2022-10-17T00:17:19;9.13;;;1.35;;
66966;SDS011;53900;51.468;-2.586;2022-10-17T00:19:45;11.70;;;2.22;;
66966;SDS011;53900;51.468;-2.586;2022-10-17T00:22:11;5.75;;;1.13;;
66966;SDS011;53900;51.468;-2.586;2022-10-17T00:24:36;7.38;;;1.58;;
66966;SDS011;53900;51.468;-2.586;2022-10-17T00:27:02;15.20;;;2.13;;
66966;SDS011;53900;51.468;-2.586;2022-10-17T00:29:27;10.45;;;1.88;;
66966;SDS011;53900;51.468;-2.586;2022-10-17T00:31:53;9.07;;;1.83;;
66966;SDS011;53900;51.468;-2.586;2022-10-17T00:34:20;10.20;;;2.20;;
66966;SDS011;53900;51.468;-2.586;2022-10-17T00:36:45;11.98;;;2.00;;
66966;SDS011;53900;51.468;-2.586;2022-10-17T00:39:11;10.77;;;2.42;;
66966;SDS011;53900;51.468;-2.586;2022-10-17T00:41:36;6.50;;;1.20;;
66966;SDS011;53900;51.468;-2.586;2022-10-17T00:44:06;8.20;;;1.52;;
66966;SDS011;53900;51.468;-2.586;2022-10-17T00:46:51;11.05;;;1.80;;
66966;SDS011;53900;51.468;-2.586;2022-10-17T00:49:17;11.90;;;2.58;;
66966;SDS011;53900;51.468;-2.586;2022-10-17T00:51:47;11.20;;;1.83;;
66966;SDS011;53900;51.468;-2.586;2022-10-17T00:54:16;14.95;;;1.88;;
66966;SDS011;53900;51.468;-2.586;2022-10-17T00:56:43;12.80;;;1.77;;
66966;SDS011;53900;51.468;-2.586;2022-10-17T00:59:11;10.45;;;1.60;;
66966;SDS011;53900;51.468;-2.586;2022-10-17T01:01:37;8.05;;;2.20;;
66966;SDS011;53900;51.468;-2.586;2022-10-17T01:04:04;11.75;;;1.65;;
66966;SDS011;53900;51.468;-2.586;2022-10-17T01:06:30;9.43;;;1.95;;
66966;SDS011;53900;51.468;-2.586;2022-10-17T01:08:55;18.67;;;2.50;;
66966;SDS011;53900;51.468;-2.586;2022-10-17T01:11:25;11.32;;;1.50;;
66966;SDS011;53900;51.468;-2.586;2022-10-17T01:14:00;15.30;;;1.70;;
66966;SDS011;53900;51.468;-2.586;2022-10-17T01:16:42;11.02;;;1.90;;
66966;SDS011;53900;51.468;-2.586;2022-10-17T01:27:39;12.32;;;1.60;;
66966;SDS011;53900;51.468;-2.586;2022-10-17T01:36:26;11.63;;;1.73;;
66966;SDS011;53900;51.468;-2.586;2022-10-17T01:38:58;9.88;;;1.60;;
66966;SDS011;53900;51.468;-2.586;2022-10-17T01:41:34;12.90;;;3.00;;
66966;SDS011;53900;51.468;-2.586;2022-10-17T01:44:14;8.27;;;1.70;;
66966;SDS011;53900;51.468;-2.586;2022-10-17T01:46:46;9.27;;;1.50;;
66966;SDS011;53900;51.468;-2.586;2022-10-17T01:49:14;6.93;;;1.35;;
66966;SDS011;53900;51.468;-2.586;2022-10-17T01:51:54;12.55;;;2.08;;
66966;SDS011;53900;51.468;-2.586;2022-10-17T01:54:41;11.57;;;2.15;;
66966;SDS011;53900;51.468;-2.586;2022-10-17T01:57:21;7.82;;;1.70;;
66966;SDS011;53900;51.468;-2.586;2022-10-17T07:51:49;15.70;;;2.53;;
66966;SDS011;53900;51.468;-2.586;2022-10-17T07:54:14;12.88;;;1.95;;
66966;SDS011;53900;51.468;-2.586;2022-10-17T07:56:40;12.55;;;2.40;;
66966;SDS011;53900;51.468;-2.586;2022-10-17T07:59:05;16.42;;;2.30;;
66966;SDS011;53900;51.468;-2.586;2022-10-17T08:01:30;16.05;;;2.40;;
66966;SDS011;53900;51.468;-2.586;2022-10-17T08:03:56;24.08;;;2.67;;
66966;SDS011;53900;51.468;-2.586;2022-10-17T08:06:21;17.40;;;2.50;;
66966;SDS011;53900;51.468;-2.586;2022-10-17T08:08:46;25.45;;;4.20;;
66966;SDS011;53900;51.468;-2.586;2022-10-17T08:11:12;18.98;;;2.20;;
66966;SDS011;53900;51.468;-2.586;2022-10-17T08:13:38;17.33;;;2.17;;
66966;SDS011;53900;51.468;-2.586;2022-10-17T08:16:05;18.42;;;2.83;;
66966;SDS011;53900;51.468;-2.586;2022-10-17T08:18:32;18.65;;;2.75;;
66966;SDS011;53900;51.468;-2.586;2022-10-17T08:20:59;18.85;;;2.78;;
66966;SDS011;53900;51.468;-2.586;2022-10-17T08:23:25;19.23;;;2.97;;
66966;SDS011;53900;51.468;-2.586;2022-10-17T08:25:51;17.65;;;1.92;;
66966;SDS011;53900;51.468;-2.586;2022-10-17T08:28:16;14.60;;;2.60;;
66966;SDS011;53900;51.468;-2.586;2022-10-17T08:30:42;21.13;;;2.50;;
66966;SDS011;53900;51.468;-2.586;2022-10-17T08:33:07;17.02;;;2.33;;
66966;SDS011;53900;51.468;-2.586;2022-10-17T08:35:32;12.85;;;2.65;;
66966;SDS011;53900;51.468;-2.586;2022-10-17T08:37:58;19.33;;;2.58;;
66966;SDS011;53900;51.468;-2.586;2022-10-17T08:40:26;17.75;;;2.85;;
66966;SDS011;53900;51.468;-2.586;2022-10-17T08:43:09;24.77;;;3.63;;
66966;SDS011;53900;51.468;-2.586;2022-10-17T08:46:05;13.40;;;2.47;;
66966;SDS011;53900;51.468;-2.586;2022-10-17T08:48:33;16.98;;;2.72;;
66966;SDS011;53900;51.468;-2.586;2022-10-17T08:56:22;15.73;;;2.30;;
66966;SDS011;53900;51.468;-2.586;2022-10-17T08:58:48;12.70;;;2.10;;
66966;SDS011;53900;51.468;-2.586;2022-10-17T09:04:14;16.20;;;2.55;;
66966;SDS011;53900;51.468;-2.586;2022-10-17T09:07:20;13.25;;;2.38;;
66966;SDS011;53900;51.468;-2.586;2022-10-17T09:17:59;13.25;;;2.05;;
66966;SDS011;53900;51.468;-2.586;2022-10-17T09:20:42;17.98;;;2.40;;
66966;SDS011;53900;51.468;-2.586;2022-10-17T09:23:17;18.27;;;2.17;;
66966;SDS011;53900;51.468;-2.586;2022-10-17T09:25:54;12.55;;;2.40;;
66966;SDS011;53900;51.468;-2.586;2022-10-17T09:33:29;14.93;;;2.10;;
66966;SDS011;53900;51.468;-2.586;2022-10-17T09:36:08;21.48;;;2.55;;
66966;SDS011;53900;51.468;-2.586;2022-10-17T09:38:37;16.08;;;2.42;;
66966;SDS011;53900;51.468;-2.586;2022-10-17T09:41:06;15.40;;;3.25;;
66966;SDS011;53900;51.468;-2.586;2022-10-17T09:43:46;14.82;;;3.05;;
66966;SDS011;53900;51.468;-2.586;2022-10-17T09:48:37;13.45;;;2.83;;
66966;SDS011;53900;51.468;-2.586;2022-10-17T09:51:05;12.18;;;2.22;;
66966;SDS011;53900;51.468;-2.586;2022-10-17T09:53:33;17.08;;;2.40;;
66966;SDS011;53900;51.468;-2.586;2022-10-17T09:56:04;15.48;;;3.42;;
66966;SDS011;53900;51.468;-2.586;2022-10-17T09:58:43;11.68;;;2.08;;
66966;SDS011;53900;51.468;-2.586;2022-10-17T10:01:14;11.45;;;2.35;;
66966;SDS011;53900;51.468;-2.586;2022-10-17T10:03:43;15.15;;;1.98;;
66966;SDS011;53900;51.468;-2.586;2022-10-17T10:08:47;11.13;;;2.30;;
66966;SDS011;53900;51.468;-2.586;2022-10-17T10:11:17;17.90;;;2.53;;
66966;SDS011;53900;51.468;-2.586;2022-10-17T10:13:46;14.75;;;2.00;;
66966;SDS011;53900;51.468;-2.586;2022-10-17T10:18:53;18.88;;;2.28;;
66966;SDS011;53900;51.468;-2.586;2022-10-17T10:21:20;9.55;;;1.58;;
66966;SDS011;53900;51.468;-2.586;2022-10-17T10:26:36;8.52;;;1.65;;
66966;SDS011;53900;51.468;-2.586;2022-10-17T10:31:54;12.48;;;2.17;;
66966;SDS011;53900;51.468;-2.586;2022-10-17T10:34:26;6.57;;;1.63;;
66966;SDS011;53900;51.468;-2.586;2022-10-17T10:39:44;16.75;;;2.10;;
66966;SDS011;53900;51.468;-2.586;2022-10-17T10:42:35;11.93;;;1.90;;
66966;SDS011;53900;51.468;-2.586;2022-10-17T10:45:02;11.77;;;2.10;;
66966;SDS011;53900;51.468;-2.586;2022-10-17T10:47:37;15.45;;;2.10;;
66966;SDS011;53900;51.468;-2.586;2022-10-17T10:50:08;10.50;;;2.03;;
66966;SDS011;53900;51.468;-2.586;2022-10-17T10:52:49;11.30;;;1.65;;
66966;SDS011;53900;51.468;-2.586;2022-10-17T10:55:28;9.07;;;1.55;;
66966;SDS011;53900;51.468;-2.586;2022-10-17T10:57:57;7.30;;;1.67;;
66966;SDS011;53900;51.468;-2.586;2022-10-17T11:00:27;10.18;;;1.85;;
66966;SDS011;53900;51.468;-2.586;2022-10-17T11:05:34;7.10;;;1.80;;
66966;SDS011;53900;51.468;-2.586;2022-10-17T11:13:46;11.70;;;1.92;;
66966;SDS011;53900;51.468;-2.586;2022-10-17T11:22:15;11.90;;;1.70;;
66966;SDS011;53900;51.468;-2.586;2022-10-17T11:24:58;11.43;;;1.70;;
66966;SDS011;53900;51.468;-2.586;2022-10-17T11:27:28;8.80;;;1.80;;
66966;SDS011;53900;51.468;-2.586;2022-10-17T11:29:54;11.77;;;1.50;;
66966;SDS011;53900;51.468;-2.586;2022-10-17T11:35:19;9.98;;;1.67;;
66966;SDS011;53900;51.468;-2.586;2022-10-17T11:38:34;8.80;;;1.77;;
66966;SDS011;53900;51.468;-2.586;2022-10-17T11:40:45;10.70;;;2.08;;
66966;SDS011;53900;51.468;-2.586;2022-10-17T11:43:17;8.85;;;1.90;;
66966;SDS011;53900;51.468;-2.586;2022-10-17T11:45:47;9.40;;;2.38;;
66966;SDS011;53900;51.468;-2.586;2022-10-17T11:48:18;10.85;;;1.48;;
66966;SDS011;53900;51.468;-2.586;2022-10-17T11:50:48;8.52;;;1.75;;
66966;SDS011;53900;51.468;-2.586;2022-10-17T11:53:19;16.90;;;2.40;;
66966;SDS011;53900;51.468;-2.586;2022-10-17T11:55:46;7.28;;;1.33;;
66966;SDS011;53900;51.468;-2.586;2022-10-17T12:01:12;11.43;;;1.58;;
66966;SDS011;53900;51.468;-2.586;2022-10-17T12:04:00;7.30;;;1.42;;
66966;SDS011;53900;51.468;-2.586;2022-10-17T12:12:10;7.82;;;1.95;;
66966;SDS011;53900;51.468;-2.586;2022-10-17T12:14:48;12.13;;;1.85;;
66966;SDS011;53900;51.468;-2.586;2022-10-17T12:25:19;10.32;;;1.48;;
66966;SDS011;53900;51.468;-2.586;2022-10-17T12:27:46;12.90;;;1.92;;
66966;SDS011;53900;51.468;-2.586;2022-10-17T12:30:18;11.63;;;1.60;;
66966;SDS011;53900;51.468;-2.586;2022-10-17T12:45:51;9.15;;;2.17;;
66966;SDS011;53900;51.468;-2.586;2022-10-17T12:56:20;11.52;;;1.85;;
66966;SDS011;53900;51.468;-2.586;2022-10-17T12:58:54;12.15;;;1.70;;
66966;SDS011;53900;51.468;-2.586;2022-10-17T13:01:27;12.32;;;2.42;;
66966;SDS011;53900;51.468;-2.586;2022-10-17T13:03:55;15.20;;;1.55;;
66966;SDS011;53900;51.468;-2.586;2022-10-17T13:06:21;13.40;;;3.15;;
66966;SDS011;53900;51.468;-2.586;2022-10-17T13:09:02;14.90;;;2.90;;
66966;SDS011;53900;51.468;-2.586;2022-10-17T13:11:30;18.35;;;2.30;;
66966;SDS011;53900;51.468;-2.586;2022-10-17T13:13:57;13.05;;;1.98;;
66966;SDS011;53900;51.468;-2.586;2022-10-17T13:16:27;30.83;;;4.38;;
66966;SDS011;53900;51.468;-2.586;2022-10-17T13:19:01;11.38;;;1.55;;
66966;SDS011;53900;51.468;-2.586;2022-10-17T13:21:29;13.27;;;1.70;;
66966;SDS011;53900;51.468;-2.586;2022-10-17T13:23:54;9.70;;;1.63;;
66966;SDS011;53900;51.468;-2.586;2022-10-17T13:26:26;9.18;;;1.63;;
66966;SDS011;53900;51.468;-2.586;2022-10-17T13:31:34;8.00;;;1.42;;
66966;SDS011;53900;51.468;-2.586;2022-10-17T13:34:02;7.10;;;1.45;;
66966;SDS011;53900;51.468;-2.586;2022-10-17T13:36:29;5.38;;;1.55;;
66966;SDS011;53900;51.468;-2.586;2022-10-17T13:38:56;11.18;;;1.60;;
66966;SDS011;53900;51.468;-2.586;2022-10-17T13:41:25;5.47;;;1.45;;
66966;SDS011;53900;51.468;-2.586;2022-10-17T13:43:52;12.43;;;2.10;;
66966;SDS011;53900;51.468;-2.586;2022-10-17T13:46:28;8.27;;;1.40;;
66966;SDS011;53900;51.468;-2.586;2022-10-17T13:48:56;7.65;;;1.75;;
66966;SDS011;53900;51.468;-2.586;2022-10-17T13:51:22;12.10;;;1.80;;
66966;SDS011;53900;51.468;-2.586;2022-10-17T13:53:48;5.18;;;1.38;;
66966;SDS011;53900;51.468;-2.586;2022-10-17T13:56:21;7.82;;;1.60;;
66966;SDS011;53900;51.468;-2.586;2022-10-17T13:58:53;10.07;;;1.80;;
66966;SDS011;53900;51.468;-2.586;2022-10-17T14:01:21;7.80;;;1.30;;
66966;SDS011;53900;51.468;-2.586;2022-10-17T14:03:48;9.40;;;1.88;;
66966;SDS011;53900;51.468;-2.586;2022-10-17T14:08:53;6.25;;;1.45;;
66966;SDS011;53900;51.468;-2.586;2022-10-17T14:14:00;9.43;;;1.65;;
66966;SDS011;53900;51.468;-2.586;2022-10-17T14:16:32;5.47;;;1.52;;
66966;SDS011;53900;51.468;-2.586;2022-10-17T14:18:59;7.88;;;1.65;;
66966;SDS011;53900;51.468;-2.586;2022-10-17T14:21:25;13.65;;;1.63;;
66966;SDS011;53900;51.468;-2.586;2022-10-17T14:26:45;8.15;;;1.40;;
66966;SDS011;53900;51.468;-2.586;2022-10-17T14:31:49;8.25;;;1.70;;
66966;SDS011;53900;51.468;-2.586;2022-10-17T14:34:23;9.13;;;1.75;;
66966;SDS011;53900;51.468;-2.586;2022-10-17T14:36:52;9.30;;;1.42;;
66966;SDS011;53900;51.468;-2.586;2022-10-17T14:39:18;10.63;;;1.83;;
66966;SDS011;53900;51.468;-2.586;2022-10-17T14:41:46;6.68;;;1.90;;
66966;SDS011;53900;51.468;-2.586;2022-10-17T14:44:14;9.30;;;1.52;;
66966;SDS011;53900;51.468;-2.586;2022-10-17T14:46:43;9.73;;;1.77;;
66966;SDS011;53900;51.468;-2.586;2022-10-17T14:49:16;17.42;;;2.10;;
66966;SDS011;53900;51.468;-2.586;2022-10-17T14:54:41;12.80;;;1.77;;
66966;SDS011;53900;51.468;-2.586;2022-10-17T14:59:56;13.45;;;2.00;;
66966;SDS011;53900;51.468;-2.586;2022-10-17T15:02:22;9.85;;;1.88;;
66966;SDS011;53900;51.468;-2.586;2022-10-17T15:04:52;11.18;;;1.73;;
66966;SDS011;53900;51.468;-2.586;2022-10-17T15:07:17;11.68;;;1.95;;
66966;SDS011;53900;51.468;-2.586;2022-10-17T15:09:46;11.15;;;1.83;;
66966;SDS011;53900;51.468;-2.586;2022-10-17T15:12:13;8.30;;;1.67;;
66966;SDS011;53900;51.468;-2.586;2022-10-17T15:14:41;11.90;;;2.45;;
66966;SDS011;53900;51.468;-2.586;2022-10-17T15:17:09;11.75;;;2.10;;
66966;SDS011;53900;51.468;-2.586;2022-10-17T15:19:39;12.15;;;1.98;;
66966;SDS011;53900;51.468;-2.586;2022-10-17T15:22:04;14.30;;;2.38;;
66966;SDS011;53900;51.468;-2.586;2022-10-17T15:24:29;13.48;;;2.50;;
66966;SDS011;53900;51.468;-2.586;2022-10-17T15:26:55;12.27;;;2.00;;
66966;SDS011;53900;51.468;-2.586;2022-10-17T15:29:20;13.68;;;2.60;;
66966;SDS011;53900;51.468;-2.586;2022-10-17T15:31:45;14.82;;;2.20;;
66966;SDS011;53900;51.468;-2.586;2022-10-17T15:34:11;14.55;;;1.92;;
66966;SDS011;53900;51.468;-2.586;2022-10-17T15:36:39;14.35;;;2.53;;
66966;SDS011;53900;51.468;-2.586;2022-10-17T15:39:06;14.02;;;2.45;;
66966;SDS011;53900;51.468;-2.586;2022-10-17T15:41:32;11.10;;;1.83;;
66966;SDS011;53900;51.468;-2.586;2022-10-17T15:43:57;12.00;;;2.35;;
66966;SDS011;53900;51.468;-2.586;2022-10-17T15:46:24;13.10;;;2.17;;
66966;SDS011;53900;51.468;-2.586;2022-10-17T15:48:52;10.65;;;1.80;;
66966;SDS011;53900;51.468;-2.586;2022-10-17T15:51:18;10.93;;;2.05;;
66966;SDS011;53900;51.468;-2.586;2022-10-17T15:53:44;16.48;;;1.88;;
66966;SDS011;53900;51.468;-2.586;2022-10-17T15:56:20;11.75;;;2.10;;
66966;SDS011;53900;51.468;-2.586;2022-10-17T15:58:48;20.27;;;2.83;;
66966;SDS011;53900;51.468;-2.586;2022-10-17T16:01:23;11.60;;;1.98;;
66966;SDS011;53900;51.468;-2.586;2022-10-17T16:03:49;13.15;;;2.55;;
66966;SDS011;53900;51.468;-2.586;2022-10-17T16:06:16;11.40;;;2.13;;
66966;SDS011;53900;51.468;-2.586;2022-10-17T16:08:42;12.25;;;2.80;;
66966;SDS011;53900;51.468;-2.586;2022-10-17T16:11:27;13.82;;;2.30;;
66966;SDS011;53900;51.468;-2.586;2022-10-17T16:13:57;13.70;;;1.70;;
66966;SDS011;53900;51.468;-2.586;2022-10-17T16:16:25;12.18;;;1.80;;
66966;SDS011;53900;51.468;-2.586;2022-10-17T16:18:50;11.55;;;1.60;;
66966;SDS011;53900;51.468;-2.586;2022-10-17T16:21:16;14.43;;;2.75;;
66966;SDS011;53900;51.468;-2.586;2022-10-17T16:23:41;11.70;;;1.95;;
66966;SDS011;53900;51.468;-2.586;2022-10-17T16:26:07;12.48;;;2.10;;
66966;SDS011;53900;51.468;-2.586;2022-10-17T16:28:33;10.65;;;1.98;;
66966;SDS011;53900;51.468;-2.586;2022-10-17T16:30:58;9.65;;;1.83;;
66966;SDS011;53900;51.468;-2.586;2022-10-17T16:33:24;11.38;;;1.98;;
66966;SDS011;53900;51.468;-2.586;2022-10-17T16:35:49;15.13;;;2.25;;
66966;SDS011;53900;51.468;-2.586;2022-10-17T16:38:16;10.27;;;2.10;;
66966;SDS011;53900;51.468;-2.586;2022-10-17T16:40:41;13.70;;;2.08;;
66966;SDS011;53900;51.468;-2.586;2022-10-17T16:43:09;8.65;;;1.63;;
66966;SDS011;53900;51.468;-2.586;2022-10-17T16:45:35;12.60;;;1.90;;
66966;SDS011;53900;51.468;-2.586;2022-10-17T16:48:01;11.07;;;2.35;;
66966;SDS011;53900;51.468;-2.586;2022-10-17T16:50:26;11.00;;;1.83;;
66966;SDS011;53900;51.468;-2.586;2022-10-17T16:52:51;11.27;;;1.90;;
66966;SDS011;53900;51.468;-2.586;2022-10-17T16:55:17;17.15;;;2.13;;
66966;SDS011;53900;51.468;-2.586;2022-10-17T16:57:43;13.18;;;2.25;;
66966;SDS011;53900;51.468;-2.586;2022-10-17T17:00:09;10.40;;;1.90;;
66966;SDS011;53900;51.468;-2.586;2022-10-17T17:02:35;15.10;;;2.05;;
66966;SDS011;53900;51.468;-2.586;2022-10-17T17:05:01;19.60;;;2.30;;
66966;SDS011;53900;51.468;-2.586;2022-10-17T17:07:26;8.73;;;1.50;;
66966;SDS011;53900;51.468;-2.586;2022-10-17T17:09:53;12.35;;;2.10;;
66966;SDS011;53900;51.468;-2.586;2022-10-17T17:12:19;9.48;;;2.03;;
66966;SDS011;53900;51.468;-2.586;2022-10-17T17:14:44;18.90;;;2.40;;
66966;SDS011;53900;51.468;-2.586;2022-10-17T17:17:10;13.13;;;2.03;;
66966;SDS011;53900;51.468;-2.586;2022-10-17T17:19:35;13.18;;;1.98;;
66966;SDS011;53900;51.468;-2.586;2022-10-17T17:22:00;12.55;;;2.00;;
66966;SDS011;53900;51.468;-2.586;2022-10-17T17:24:26;11.75;;;1.90;;
66966;SDS011;53900;51.468;-2.586;2022-10-17T17:26:52;12.82;;;1.70;;
66966;SDS011;53900;51.468;-2.586;2022-10-17T17:29:19;24.88;;;3.20;;
66966;SDS011;53900;51.468;-2.586;2022-10-17T17:31:45;22.65;;;2.30;;
66966;SDS011;53900;51.468;-2.586;2022-10-17T17:46:22;12.88;;;2.35;;
66966;SDS011;53900;51.468;-2.586;2022-10-17T17:48:49;13.70;;;2.60;;
66966;SDS011;53900;51.468;-2.586;2022-10-17T17:51:16;11.07;;;2.33;;
66966;SDS011;53900;51.468;-2.586;2022-10-17T17:53:43;9.52;;;1.98;;
66966;SDS011;53900;51.468;-2.586;2022-10-17T17:56:19;18.52;;;2.70;;
66966;SDS011;53900;51.468;-2.586;2022-10-17T17:58:46;17.52;;;3.47;;
66966;SDS011;53900;51.468;-2.586;2022-10-17T18:01:18;16.33;;;3.30;;
66966;SDS011;53900;51.468;-2.586;2022-10-17T18:03:46;14.18;;;3.78;;
66966;SDS011;53900;51.468;-2.586;2022-10-17T18:06:15;10.25;;;2.88;;
66966;SDS011;53900;51.468;-2.586;2022-10-17T18:08:45;15.25;;;2.88;;
66966;SDS011;53900;51.468;-2.586;2022-10-17T18:11:11;11.43;;;3.60;;
66966;SDS011;53900;51.468;-2.586;2022-10-17T18:13:37;18.40;;;4.50;;
66966;SDS011;53900;51.468;-2.586;2022-10-17T18:16:02;12.77;;;3.92;;
66966;SDS011;53900;51.468;-2.586;2022-10-17T18:18:36;9.52;;;3.25;;
66966;SDS011;53900;51.468;-2.586;2022-10-17T18:21:02;17.70;;;3.47;;
66966;SDS011;53900;51.468;-2.586;2022-10-17T18:23:27;15.02;;;3.15;;
66966;SDS011;53900;51.468;-2.586;2022-10-17T18:25:59;14.15;;;3.35;;
66966;SDS011;53900;51.468;-2.586;2022-10-17T18:28:25;15.27;;;4.72;;
66966;SDS011;53900;51.468;-2.586;2022-10-17T18:30:51;11.43;;;3.72;;
66966;SDS011;53900;51.468;-2.586;2022-10-17T18:33:16;18.25;;;4.93;;
66966;SDS011;53900;51.468;-2.586;2022-10-17T18:35:41;12.68;;;4.47;;
66966;SDS011;53900;51.468;-2.586;2022-10-17T18:38:07;14.15;;;4.85;;
66966;SDS011;53900;51.468;-2.586;2022-10-17T18:40:32;13.93;;;5.05;;
66966;SDS011;53900;51.468;-2.586;2022-10-17T18:42:58;18.58;;;5.40;;
66966;SDS011;53900;51.468;-2.586;2022-10-17T18:45:23;15.77;;;3.58;;
66966;SDS011;53900;51.468;-2.586;2022-10-17T18:47:48;21.65;;;3.90;;
66966;SDS011;53900;51.468;-2.586;2022-10-17T18:50:18;16.90;;;3.83;;
66966;SDS011;53900;51.468;-2.586;2022-10-17T18:52:45;14.57;;;4.68;;
66966;SDS011;53900;51.468;-2.586;2022-10-17T18:55:11;17.40;;;5.03;;
66966;SDS011;53900;51.468;-2.586;2022-10-17T18:57:37;12.90;;;5.30;;
66966;SDS011;53900;51.468;-2.586;2022-10-17T19:00:02;14.50;;;6.20;;
66966;SDS011;53900;51.468;-2.586;2022-10-17T19:02:28;20.75;;;6.38;;
66966;SDS011;53900;51.468;-2.586;2022-10-17T19:04:54;15.73;;;6.07;;
66966;SDS011;53900;51.468;-2.586;2022-10-17T19:07:19;19.38;;;7.20;;
66966;SDS011;53900;51.468;-2.586;2022-10-17T19:09:46;20.25;;;7.10;;
66966;SDS011;53900;51.468;-2.586;2022-10-17T19:12:12;21.73;;;8.48;;
66966;SDS011;53900;51.468;-2.586;2022-10-17T19:14:37;25.30;;;9.48;;
66966;SDS011;53900;51.468;-2.586;2022-10-17T19:17:03;25.25;;;9.13;;
66966;SDS011;53900;51.468;-2.586;2022-10-17T19:19:28;18.63;;;7.60;;
66966;SDS011;53900;51.468;-2.586;2022-10-17T19:21:53;24.02;;;7.72;;
66966;SDS011;53900;51.468;-2.586;2022-10-17T19:24:20;23.48;;;8.70;;
66966;SDS011;53900;51.468;-2.586;2022-10-17T19:26:50;21.55;;;8.00;;
66966;SDS011;53900;51.468;-2.586;2022-10-17T19:29:21;19.67;;;7.20;;
66966;SDS011;53900;51.468;-2.586;2022-10-17T19:31:52;18.05;;;5.43;;
66966;SDS011;53900;51.468;-2.586;2022-10-17T19:34:18;21.45;;;6.65;;
66966;SDS011;53900;51.468;-2.586;2022-10-17T19:36:43;18.02;;;6.57;;
66966;SDS011;53900;51.468;-2.586;2022-10-17T19:39:10;21.45;;;8.38;;
66966;SDS011;53900;51.468;-2.586;2022-10-17T19:41:38;19.07;;;5.70;;
66966;SDS011;53900;51.468;-2.586;2022-10-17T19:44:05;21.23;;;5.88;;
66966;SDS011;53900;51.468;-2.586;2022-10-17T19:46:30;16.15;;;5.50;;
66966;SDS011;53900;51.468;-2.586;2022-10-17T19:48:57;18.98;;;5.80;;
66966;SDS011;53900;51.468;-2.586;2022-10-17T19:51:23;17.15;;;6.05;;
66966;SDS011;53900;51.468;-2.586;2022-10-17T19:53:50;23.73;;;6.63;;
66966;SDS011;53900;51.468;-2.586;2022-10-17T19:56:17;18.75;;;6.45;;
66966;SDS011;53900;51.468;-2.586;2022-10-17T19:58:46;16.27;;;6.68;;
66966;SDS011;53900;51.468;-2.586;2022-10-17T20:01:19;17.92;;;6.88;;
66966;SDS011;53900;51.468;-2.586;2022-10-17T20:03:51;16.98;;;6.53;;
66966;SDS011;53900;51.468;-2.586;2022-10-17T20:06:17;18.25;;;6.15;;
66966;SDS011;53900;51.468;-2.586;2022-10-17T20:08:42;21.10;;;6.90;;
66966;SDS011;53900;51.468;-2.586;2022-10-17T20:11:18;38.38;;;13.38;;
66966;SDS011;53900;51.468;-2.586;2022-10-17T20:13:45;35.90;;;12.05;;
66966;SDS011;53900;51.468;-2.586;2022-10-17T20:16:12;26.23;;;9.68;;
66966;SDS011;53900;51.468;-2.586;2022-10-17T20:18:39;25.70;;;9.25;;
66966;SDS011;53900;51.468;-2.586;2022-10-17T20:21:12;25.95;;;11.25;;
66966;SDS011;53900;51.468;-2.586;2022-10-17T20:23:39;30.80;;;12.27;;
66966;SDS011;53900;51.468;-2.586;2022-10-17T20:26:06;32.13;;;12.50;;
66966;SDS011;53900;51.468;-2.586;2022-10-17T20:28:33;32.45;;;12.27;;
66966;SDS011;53900;51.468;-2.586;2022-10-17T20:30:59;30.95;;;11.85;;
66966;SDS011;53900;51.468;-2.586;2022-10-17T20:33:24;28.77;;;11.13;;
66966;SDS011;53900;51.468;-2.586;2022-10-17T20:35:51;29.02;;;11.68;;
66966;SDS011;53900;51.468;-2.586;2022-10-17T20:38:16;37.90;;;11.52;;
66966;SDS011;53900;51.468;-2.586;2022-10-17T20:40:42;22.17;;;10.02;;
66966;SDS011;53900;51.468;-2.586;2022-10-17T20:43:08;25.63;;;9.88;;
66966;SDS011;53900;51.468;-2.586;2022-10-17T20:45:35;24.42;;;8.23;;
66966;SDS011;53900;51.468;-2.586;2022-10-17T20:48:03;32.40;;;8.80;;
66966;SDS011;53900;51.468;-2.586;2022-10-17T20:50:32;21.08;;;7.65;;
66966;SDS011;53900;51.468;-2.586;2022-10-17T20:52:58;28.52;;;6.70;;
66966;SDS011;53900;51.468;-2.586;2022-10-17T20:55:23;18.92;;;6.55;;
66966;SDS011;53900;51.468;-2.586;2022-10-17T20:57:51;21.67;;;5.68;;
66966;SDS011;53900;51.468;-2.586;2022-10-17T21:00:17;15.27;;;5.43;;
66966;SDS011;53900;51.468;-2.586;2022-10-17T21:02:42;21.30;;;6.45;;
66966;SDS011;53900;51.468;-2.586;2022-10-17T21:05:08;16.42;;;6.18;;
66966;SDS011;53900;51.468;-2.586;2022-10-17T21:07:33;18.30;;;5.47;;
66966;SDS011;53900;51.468;-2.586;2022-10-17T21:09:58;22.33;;;5.82;;
66966;SDS011;53900;51.468;-2.586;2022-10-17T21:12:24;16.77;;;4.95;;
66966;SDS011;53900;51.468;-2.586;2022-10-17T21:14:49;17.10;;;5.50;;
66966;SDS011;53900;51.468;-2.586;2022-10-17T21:17:14;21.13;;;6.47;;
66966;SDS011;53900;51.468;-2.586;2022-10-17T21:19:40;19.15;;;5.97;;
66966;SDS011;53900;51.468;-2.586;2022-10-17T21:22:05;17.70;;;7.53;;
66966;SDS011;53900;51.468;-2.586;2022-10-17T21:24:30;31.95;;;10.52;;
66966;SDS011;53900;51.468;-2.586;2022-10-17T21:26:56;22.77;;;5.88;;
66966;SDS011;53900;51.468;-2.586;2022-10-17T21:29:21;19.55;;;5.70;;
66966;SDS011;53900;51.468;-2.586;2022-10-17T21:31:47;19.83;;;5.95;;
66966;SDS011;53900;51.468;-2.586;2022-10-17T21:34:14;15.85;;;4.43;;
66966;SDS011;53900;51.468;-2.586;2022-10-17T21:36:41;16.52;;;4.20;;
66966;SDS011;53900;51.468;-2.586;2022-10-17T21:39:08;16.15;;;3.92;;
66966;SDS011;53900;51.468;-2.586;2022-10-17T21:41:34;21.23;;;5.35;;
66966;SDS011;53900;51.468;-2.586;2022-10-17T21:44:03;23.65;;;4.68;;
66966;SDS011;53900;51.468;-2.586;2022-10-17T21:46:30;35.85;;;10.77;;
66966;SDS011;53900;51.468;-2.586;2022-10-17T21:48:57;25.88;;;8.93;;
66966;SDS011;53900;51.468;-2.586;2022-10-17T21:51:23;19.50;;;5.68;;
66966;SDS011;53900;51.468;-2.586;2022-10-17T21:53:50;37.97;;;11.13;;
66966;SDS011;53900;51.468;-2.586;2022-10-17T21:56:17;20.52;;;8.40;;
66966;SDS011;53900;51.468;-2.586;2022-10-17T21:58:44;20.15;;;6.65;;
66966;SDS011;53900;51.468;-2.586;2022-10-17T22:03:38;26.95;;;4.97;;
66966;SDS011;53900;51.468;-2.586;2022-10-17T22:06:05;21.50;;;4.63;;
66966;SDS011;53900;51.468;-2.586;2022-10-17T22:08:31;16.52;;;4.57;;
66966;SDS011;53900;51.468;-2.586;2022-10-17T22:10:57;22.10;;;4.55;;
66966;SDS011;53900;51.468;-2.586;2022-10-17T22:13:28;18.05;;;4.45;;
66966;SDS011;53900;51.468;-2.586;2022-10-17T22:16:04;15.90;;;4.25;;
66966;SDS011;53900;51.468;-2.586;2022-10-17T22:18:31;27.02;;;4.78;;
66966;SDS011;53900;51.468;-2.586;2022-10-17T22:21:03;16.63;;;4.57;;
66966;SDS011;53900;51.468;-2.586;2022-10-17T22:23:30;13.95;;;3.92;;
66966;SDS011;53900;51.468;-2.586;2022-10-17T22:25:56;13.75;;;4.90;;
66966;SDS011;53900;51.468;-2.586;2022-10-17T22:28:23;15.52;;;4.78;;
66966;SDS011;53900;51.468;-2.586;2022-10-17T22:30:48;21.40;;;4.55;;
66966;SDS011;53900;51.468;-2.586;2022-10-17T22:33:14;16.88;;;5.28;;
66966;SDS011;53900;51.468;-2.586;2022-10-17T22:35:41;13.82;;;4.22;;
66966;SDS011;53900;51.468;-2.586;2022-10-17T22:38:06;18.65;;;4.55;;
66966;SDS011;53900;51.468;-2.586;2022-10-17T22:40:32;20.23;;;4.95;;
66966;SDS011;53900;51.468;-2.586;2022-10-17T22:42:57;17.08;;;4.45;;